createdAt,value
2023-02-07T00:01:51.449Z,101745.27
2023-02-07T00:04:20.394Z,101746.99
2023-02-07T00:06:49.363Z,101745.11
2023-02-07T00:09:18.370Z,101743.94
2023-02-07T00:11:47.433Z,101739.73
2023-02-07T00:14:16.775Z,101741.68
2023-02-07T00:16:45.815Z,101737.65
2023-02-07T00:19:15.475Z,101735.56
2023-02-07T00:21:45.322Z,101734.04
2023-02-07T00:24:14.490Z,101733.60
2023-02-07T00:26:47.350Z,101729.15
2023-02-07T00:29:17.389Z,101729.51
2023-02-07T00:31:46.723Z,101726.77
2023-02-07T00:34:20.938Z,101726.05
2023-02-07T00:36:50.076Z,101724.42
2023-02-07T00:39:20.064Z,101725.96
2023-02-07T00:41:51.029Z,101723.66
2023-02-07T00:44:19.929Z,101721.89
2023-02-07T00:46:49.086Z,101722.99
2023-02-07T00:49:17.949Z,101714.70
2023-02-07T00:51:47.509Z,101710.76
2023-02-07T00:54:16.572Z,101710.89
2023-02-07T00:56:46.284Z,101711.67
2023-02-07T00:59:15.120Z,101712.02
2023-02-07T01:01:44.247Z,101713.25
2023-02-07T01:04:13.883Z,101710.83
2023-02-07T01:06:42.904Z,101704.00
2023-02-07T01:09:12.250Z,101700.66
2023-02-07T01:11:41.314Z,101698.58
2023-02-07T01:14:11.459Z,101696.48
2023-02-07T01:16:40.912Z,101692.31
2023-02-07T01:19:10.538Z,101695.07
2023-02-07T01:21:39.590Z,101696.52
2023-02-07T01:24:08.898Z,101694.50
2023-02-07T01:26:38.209Z,101695.36
2023-02-07T01:29:07.195Z,101695.73
2023-02-07T01:31:38.221Z,101691.52
2023-02-07T01:34:07.325Z,101690.94
2023-02-07T01:36:36.684Z,101689.35
2023-02-07T01:39:06.775Z,101690.09
2023-02-07T01:41:36.868Z,101691.66
2023-02-07T01:44:09.396Z,101698.32
2023-02-07T01:46:39.351Z,101698.80
2023-02-07T01:49:10.774Z,101704.37
2023-02-07T01:51:42.109Z,101702.08
2023-02-07T01:54:11.989Z,101697.56
2023-02-07T01:56:43.647Z,101695.33
2023-02-07T01:59:12.966Z,101694.84
2023-02-07T02:01:42.750Z,101693.63
2023-02-07T02:04:11.942Z,101695.17
2023-02-07T02:06:41.436Z,101693.61
2023-02-07T02:09:13.235Z,101689.19
2023-02-07T02:11:58.424Z,101690.45
2023-02-07T02:15:01.795Z,101689.63
2023-02-07T02:17:45.376Z,101685.30
2023-02-07T02:20:29.507Z,101679.23
2023-02-07T02:23:10.023Z,101680.56
2023-02-07T02:26:04.381Z,101683.64
2023-02-07T02:28:55.518Z,101685.96
2023-02-07T02:31:38.567Z,101685.42
2023-02-07T02:34:50.326Z,101676.38
2023-02-07T02:37:38.448Z,101681.49
2023-02-07T02:40:11.329Z,101681.83
2023-02-07T02:42:44.350Z,101675.56
2023-02-07T02:45:25.301Z,101680.09
2023-02-07T02:47:54.857Z,101673.20
2023-02-07T02:50:26.405Z,101672.11
2023-02-07T02:52:55.823Z,101671.98
2023-02-07T02:56:02.997Z,101668.48
2023-02-07T02:58:55.434Z,101671.75
2023-02-07T03:01:36.358Z,101674.34
2023-02-07T03:04:27.572Z,101676.61
2023-02-07T03:07:03.543Z,101672.70
2023-02-07T03:09:52.194Z,101672.86
2023-02-07T03:12:39.631Z,101670.56
2023-02-07T03:15:28.113Z,101667.56
2023-02-07T03:18:08.440Z,101665.39
2023-02-07T03:20:39.896Z,101668.46
2023-02-07T03:23:08.818Z,101670.70
2023-02-07T03:25:38.475Z,101668.64
2023-02-07T03:28:09.665Z,101670.10
2023-02-07T03:30:39.011Z,101666.05
2023-02-07T03:33:12.060Z,101672.92
2023-02-07T03:35:48.253Z,101671.20
2023-02-07T03:38:16.927Z,101671.78
2023-02-07T03:40:51.671Z,101668.20
2023-02-07T03:43:21.868Z,101666.90
2023-02-07T03:45:50.701Z,101674.40
2023-02-07T03:48:19.587Z,101673.41
2023-02-07T03:50:50.405Z,101675.13
2023-02-07T03:53:22.166Z,101679.23
2023-02-07T03:55:51.993Z,101676.25
2023-02-07T03:58:20.913Z,101683.69
2023-02-07T04:00:49.895Z,101686.73
2023-02-07T04:03:18.748Z,101690.30
2023-02-07T04:05:49.954Z,101693.23
2023-02-07T04:08:18.836Z,101692.39
2023-02-07T04:10:57.974Z,101697.17
2023-02-07T04:13:27.051Z,101705.44
2023-02-07T04:15:56.400Z,101707.20
2023-02-07T04:18:25.182Z,101711.48
2023-02-07T04:21:01.741Z,101708.51
2023-02-07T04:23:30.791Z,101705.80
2023-02-07T04:25:59.689Z,101713.02
2023-02-07T04:28:28.770Z,101720.16
2023-02-07T04:30:57.707Z,101716.67
2023-02-07T04:33:26.551Z,101720.47
2023-02-07T04:35:59.432Z,101721.30
2023-02-07T04:38:28.418Z,101721.63
2023-02-07T04:41:00.927Z,101723.80
2023-02-07T04:43:30.370Z,101728.30
2023-02-07T04:45:59.664Z,101735.07
2023-02-07T04:48:28.452Z,101743.64
2023-02-07T04:50:57.309Z,101740.87
2023-02-07T04:53:26.312Z,101744.89
2023-02-07T04:55:55.182Z,101749.34
2023-02-07T04:58:24.369Z,101749.58
2023-02-07T05:00:54.109Z,101751.98
2023-02-07T05:03:23.096Z,101754.42
2023-02-07T05:05:53.472Z,101763.62
2023-02-07T05:08:22.961Z,101769.30
2023-02-07T05:10:54.181Z,101776.50
2023-02-07T05:13:23.769Z,101773.99
2023-02-07T05:15:52.890Z,101775.39
2023-02-07T05:18:21.988Z,101774.88
2023-02-07T05:20:52.367Z,101774.19
2023-02-07T05:23:22.053Z,101777.96
2023-02-07T05:25:51.114Z,101785.70
2023-02-07T05:28:20.048Z,101785.45
2023-02-07T05:30:49.046Z,101792.41
2023-02-07T05:33:18.056Z,101797.94
2023-02-07T05:35:47.051Z,101795.59
2023-02-07T05:38:17.278Z,101803.45
2023-02-07T05:40:46.195Z,101807.21
2023-02-07T05:43:15.206Z,101805.90
2023-02-07T05:45:46.080Z,101810.02
2023-02-07T05:48:16.282Z,101812.59
2023-02-07T05:50:45.274Z,101810.00
2023-02-07T05:53:14.247Z,101812.85
2023-02-07T05:55:43.129Z,101811.17
2023-02-07T05:58:12.717Z,101812.20
2023-02-07T06:00:41.885Z,101812.96
2023-02-07T06:03:11.188Z,101818.79
2023-02-07T06:05:43.618Z,101818.80
2023-02-07T06:08:12.826Z,101819.77
2023-02-07T06:10:42.734Z,101824.11
2023-02-07T06:13:11.783Z,101825.29
2023-02-07T06:15:41.034Z,101834.48
2023-02-07T06:18:10.346Z,101833.34
2023-02-07T06:20:39.193Z,101835.42
2023-02-07T06:23:08.003Z,101839.29
2023-02-07T06:25:37.436Z,101839.32
2023-02-07T06:28:06.611Z,101845.36
2023-02-07T06:30:36.498Z,101844.70
2023-02-07T06:33:05.638Z,101848.77
2023-02-07T06:35:34.500Z,101845.32
2023-02-07T06:38:03.417Z,101847.44
2023-02-07T06:40:32.460Z,101845.78
2023-02-07T06:43:01.574Z,101850.75
2023-02-07T06:45:30.910Z,101852.84
2023-02-07T06:48:00.113Z,101856.61
2023-02-07T06:50:29.138Z,101863.69
2023-02-07T06:53:02.491Z,101864.27
2023-02-07T06:55:32.452Z,101867.27
2023-02-07T06:58:01.195Z,101861.48
2023-02-07T07:00:30.220Z,101868.79
2023-02-07T07:03:00.698Z,101866.77
2023-02-07T07:05:30.596Z,101867.55
2023-02-07T07:07:59.826Z,101871.52
2023-02-07T07:10:29.115Z,101874.84
2023-02-07T07:12:59.386Z,101868.64
2023-02-07T07:15:28.413Z,101875.35
2023-02-07T07:17:57.224Z,101878.52
2023-02-07T07:20:26.542Z,101879.23
2023-02-07T07:22:55.403Z,101881.68
2023-02-07T07:25:24.605Z,101885.61
2023-02-07T07:27:54.008Z,101890.53
2023-02-07T07:30:23.410Z,101895.72
2023-02-07T07:32:52.708Z,101896.68
2023-02-07T07:35:21.877Z,101896.41
2023-02-07T07:37:50.677Z,101901.66
2023-02-07T09:40:42.616Z,101933.30
2023-02-07T09:43:20.748Z,101938.48
2023-02-07T09:45:52.587Z,101940.13
2023-02-07T09:48:51.464Z,101945.55
2023-02-07T09:51:20.734Z,101955.80
2023-02-07T09:53:57.298Z,101955.98
2023-02-07T09:56:25.615Z,101951.17
2023-02-07T09:59:15.526Z,101947.23
2023-02-07T10:01:45.215Z,101951.78
2023-02-07T10:04:20.722Z,101953.05
2023-02-07T10:06:52.205Z,101950.61
2023-02-07T10:09:26.233Z,101953.38
2023-02-07T10:12:10.291Z,101955.27
2023-02-07T10:15:03.415Z,101959.29
2023-02-07T10:17:51.308Z,101955.55
2023-02-07T10:20:19.152Z,101955.39
2023-02-07T10:22:54.178Z,101953.67
2023-02-07T10:25:49.819Z,101951.34
2023-02-07T10:28:48.928Z,101955.60
2023-02-07T10:31:18.333Z,101958.49
2023-02-07T10:33:52.487Z,101958.27
2023-02-07T10:36:19.856Z,101968.20
2023-02-07T10:39:08.296Z,101972.56
2023-02-07T10:41:38.969Z,101980.48
2023-02-07T10:44:11.701Z,101982.63
2023-02-07T10:46:41.168Z,101986.45
2023-02-07T10:49:24.729Z,101989.73
2023-02-07T10:51:57.022Z,101994.70
2023-02-07T10:54:24.661Z,101996.78
2023-02-07T10:57:01.617Z,101994.96
2023-02-07T10:59:45.741Z,101999.48
2023-02-07T11:02:28.624Z,101999.14
2023-02-07T11:04:56.727Z,102002.23
2023-02-07T11:07:25.160Z,101998.00
2023-02-07T11:10:10.218Z,101993.67
2023-02-07T11:12:54.047Z,101995.48
2023-02-07T11:15:42.979Z,101991.97
2023-02-07T11:18:23.395Z,101994.95
2023-02-07T11:20:52.999Z,102000.73
2023-02-07T11:23:20.356Z,102001.23
2023-02-07T11:25:47.815Z,102000.41
2023-02-07T11:28:35.409Z,101999.79
2023-02-07T11:31:08.241Z,102003.14
2023-02-07T11:33:36.260Z,102002.50
2023-02-07T11:36:14.844Z,102002.73
2023-02-07T11:38:47.814Z,101998.06
2023-02-07T11:41:20.432Z,102001.65
2023-02-07T11:43:56.639Z,102000.56
2023-02-07T11:46:31.204Z,102006.21
2023-02-07T11:48:59.461Z,102009.60
2023-02-07T11:51:28.404Z,102007.71
2023-02-07T11:53:56.934Z,102004.02
2023-02-07T11:56:37.756Z,102008.19
2023-02-07T11:59:15.083Z,102019.29
2023-02-07T12:01:44.472Z,102017.11
2023-02-07T12:04:16.289Z,102016.46
2023-02-07T12:06:47.627Z,102016.73
2023-02-07T12:09:38.043Z,102012.44
2023-02-07T12:12:09.420Z,102017.07
2023-02-07T12:14:43.681Z,102018.30
2023-02-07T12:17:18.143Z,102022.45
2023-02-07T12:20:09.585Z,102016.27
2023-02-07T12:23:34.818Z,102022.46
2023-02-07T12:26:01.029Z,102019.98
2023-02-07T12:28:33.260Z,102029.06
2023-02-07T12:31:05.083Z,102029.48
2023-02-07T12:33:45.385Z,102039.88
2023-02-07T12:36:29.199Z,102041.35
2023-02-07T12:39:15.668Z,102044.52
2023-02-07T12:41:56.928Z,102044.77
2023-02-07T12:44:30.820Z,102047.67
2023-02-07T12:47:01.215Z,102053.88
2023-02-07T12:49:28.771Z,102052.70
2023-02-07T12:52:21.423Z,102049.27
2023-02-07T12:54:55.011Z,102046.77
2023-02-07T12:57:48.918Z,102053.61
2023-02-07T13:00:23.692Z,102059.33
2023-02-07T13:03:26.776Z,102062.01
2023-02-07T13:06:33.509Z,102066.46
2023-02-07T13:09:01.051Z,102077.68
2023-02-07T13:12:07.377Z,102081.30
2023-02-07T13:15:06.851Z,102083.20
2023-02-07T13:17:38.347Z,102084.17
2023-02-07T13:20:18.037Z,102088.73
2023-02-07T13:23:01.681Z,102091.39
2023-02-07T13:25:31.900Z,102097.36
2023-02-07T13:28:00.954Z,102104.23
2023-02-07T13:30:29.449Z,102103.33
2023-02-07T13:33:00.537Z,102112.27
2023-02-07T13:35:29.693Z,102114.57
2023-02-07T13:38:23.786Z,102114.27
2023-02-07T13:41:05.461Z,102114.66
2023-02-07T13:44:09.759Z,102122.90
2023-02-07T13:46:56.523Z,102130.92
2023-02-07T13:49:33.017Z,102133.45
2023-02-07T13:52:13.558Z,102134.38
2023-02-07T13:54:48.213Z,102132.08
2023-02-07T13:57:38.964Z,102134.30
2023-02-07T14:00:12.469Z,102137.11
2023-02-07T14:02:46.317Z,102139.52
2023-02-07T14:05:25.894Z,102143.90
2023-02-07T14:08:04.563Z,102146.77
2023-02-07T14:10:48.233Z,102150.92
2023-02-07T14:13:25.758Z,102156.35
2023-02-07T14:16:02.076Z,102160.69
2023-02-07T14:19:05.851Z,102163.73
2023-02-07T14:21:38.878Z,102168.68
2023-02-07T14:24:09.680Z,102170.86
2023-02-07T14:26:38.664Z,102177.46
2023-02-07T14:29:38.976Z,102184.51
2023-02-07T14:32:15.507Z,102187.01
2023-02-07T14:35:01.658Z,102189.73
2023-02-07T14:37:56.240Z,102191.90
2023-02-07T14:40:32.570Z,102198.14
2023-02-07T14:43:01.492Z,102201.55
2023-02-07T14:45:34.124Z,102204.39
2023-02-07T14:48:01.584Z,102210.77
2023-02-07T14:50:33.292Z,102216.92
2023-02-07T14:53:04.517Z,102221.38
2023-02-07T14:55:42.023Z,102229.90
2023-02-07T14:58:36.338Z,102232.85
2023-02-07T15:01:04.034Z,102243.33
2023-02-07T15:03:32.355Z,102249.55
2023-02-07T15:06:01.937Z,102252.98
2023-02-07T15:08:32.180Z,102255.33
2023-02-07T15:11:08.121Z,102257.14
2023-02-07T15:13:43.296Z,102264.05
2023-02-07T15:16:14.271Z,102269.20
2023-02-07T15:18:46.002Z,102278.40
2023-02-07T15:21:21.604Z,102282.73
2023-02-07T15:23:51.812Z,102285.50
2023-02-07T15:26:19.864Z,102289.30
2023-02-07T15:28:47.474Z,102295.24
2023-02-07T15:31:16.575Z,102300.23
2023-02-07T15:33:47.252Z,102302.38
2023-02-07T15:36:31.742Z,102302.79
2023-02-07T15:39:00.106Z,102310.08
2023-02-07T15:41:27.769Z,102313.17
2023-02-07T15:43:55.602Z,102320.23
2023-02-07T15:46:23.063Z,102327.48
2023-02-07T15:48:54.950Z,102326.82
2023-02-07T15:51:26.157Z,102337.95
2023-02-07T15:53:58.593Z,102341.72
2023-02-07T15:56:29.351Z,102339.83
2023-02-07T15:59:03.063Z,102341.39
2023-02-07T16:01:31.945Z,102343.52
2023-02-07T16:03:59.915Z,102349.30
2023-02-07T16:06:28.638Z,102354.05
2023-02-07T16:09:00.126Z,102352.11
2023-02-07T16:11:27.537Z,102353.48
2023-02-07T16:14:03.512Z,102352.73
2023-02-07T16:16:39.767Z,102351.35
2023-02-07T16:19:13.772Z,102347.63
2023-02-07T16:21:44.276Z,102343.40
2023-02-07T16:24:21.096Z,102349.06
2023-02-07T16:26:50.201Z,102349.62
2023-02-07T16:29:23.528Z,102357.71
2023-02-07T16:31:51.954Z,102361.34
2023-02-07T16:34:19.742Z,102362.77
2023-02-07T16:36:52.065Z,102367.70
2023-02-07T16:39:19.572Z,102365.92
2023-02-07T16:41:48.710Z,102372.25
2023-02-07T16:44:22.639Z,102372.63
2023-02-07T16:46:50.338Z,102378.63
2023-02-07T16:49:21.921Z,102383.09
2023-02-07T16:51:49.587Z,102387.02
2023-02-07T16:54:17.295Z,102392.72
2023-02-07T16:56:45.870Z,102397.87
2023-02-07T16:59:14.189Z,102400.23
2023-02-07T17:01:41.557Z,102404.64
2023-02-07T17:04:11.139Z,102407.32
2023-02-07T17:06:39.113Z,102405.10
2023-02-07T17:09:20.958Z,102409.75
2023-02-07T17:11:48.351Z,102417.89
2023-02-07T17:14:16.416Z,102416.00
2023-02-07T17:16:44.109Z,102419.54
2023-02-07T17:19:17.998Z,102420.27
2023-02-07T17:21:46.443Z,102419.98
2023-02-07T17:24:14.338Z,102420.93
2023-02-07T17:26:44.387Z,102429.10
2023-02-07T17:29:13.071Z,102434.44
2023-02-07T17:31:41.092Z,102436.80
2023-02-07T17:34:09.372Z,102445.45
2023-02-07T17:36:37.301Z,102443.06
2023-02-07T17:39:06.899Z,102448.17
2023-02-07T17:41:34.727Z,102445.62
2023-02-07T17:44:02.234Z,102450.40
2023-02-07T17:46:30.016Z,102455.92
2023-02-07T17:48:57.448Z,102458.96
2023-02-07T17:51:26.250Z,102466.27
2023-02-07T17:53:55.724Z,102465.51
2023-02-07T17:56:28.677Z,102468.23
2023-02-07T17:59:02.032Z,102481.11
2023-02-07T18:01:30.967Z,102480.98
2023-02-07T18:03:58.805Z,102485.10
2023-02-07T18:06:29.180Z,102495.70
2023-02-07T18:08:58.257Z,102498.77
2023-02-07T18:11:28.529Z,102501.69
2023-02-07T18:14:01.530Z,102509.54
2023-02-07T18:16:29.480Z,102509.16
2023-02-07T18:18:58.632Z,102517.39
2023-02-07T18:21:27.420Z,102523.02
2023-02-07T18:23:56.356Z,102528.08
2023-02-07T18:26:23.744Z,102531.54
2023-02-07T18:28:51.785Z,102534.81
2023-02-07T18:31:23.505Z,102533.48
2023-02-07T18:33:51.687Z,102532.89
2023-02-07T18:36:19.772Z,102535.11
2023-02-07T18:38:47.595Z,102533.81
2023-02-07T18:41:17.208Z,102533.56
2023-02-07T18:43:45.730Z,102537.54
2023-02-07T18:46:16.343Z,102539.88
2023-02-07T18:48:50.784Z,102539.73
2023-02-07T18:51:19.111Z,102539.09
2023-02-07T18:53:47.421Z,102542.77
2023-02-07T18:56:19.900Z,102543.08
2023-02-07T18:58:47.539Z,102546.92
2023-02-07T19:01:18.751Z,102548.33
2023-02-07T19:03:47.274Z,102555.50
2023-02-07T19:06:14.822Z,102560.17
2023-02-07T19:08:42.338Z,102555.05
2023-02-07T19:11:10.588Z,102554.81
2023-02-07T19:13:38.056Z,102557.97
2023-02-07T19:16:17.453Z,102566.59
2023-02-07T19:18:45.829Z,102566.28
2023-02-07T19:21:17.803Z,102572.97
2023-02-07T19:23:45.251Z,102577.54
2023-02-07T19:26:12.867Z,102584.77
2023-02-07T19:28:40.336Z,102582.38
2023-02-07T19:31:10.096Z,102584.19
2023-02-07T19:33:37.600Z,102584.76
2023-02-07T19:36:09.719Z,102585.33
2023-02-07T19:38:37.770Z,102585.02
2023-02-07T19:41:05.674Z,102589.64
2023-02-07T19:43:34.398Z,102592.33
2023-02-07T19:46:02.319Z,102593.93
2023-02-07T19:48:30.200Z,102594.45
2023-02-07T19:50:59.747Z,102595.69
2023-02-07T19:53:27.607Z,102596.63
2023-02-07T19:56:01.777Z,102593.30
2023-02-07T19:58:33.070Z,102592.39
2023-02-07T20:01:01.023Z,102597.11
2023-02-07T20:03:28.746Z,102595.92
2023-02-07T20:05:59.578Z,102602.34
2023-02-07T20:08:27.275Z,102599.65
2023-02-07T20:10:54.851Z,102602.42
2023-02-07T20:13:22.153Z,102605.11
2023-02-07T20:15:50.654Z,102606.42
2023-02-07T20:18:18.032Z,102606.14
2023-02-07T20:20:48.041Z,102610.88
2023-02-07T20:23:15.774Z,102611.21
2023-02-07T20:25:43.277Z,102610.30
2023-02-07T20:28:14.077Z,102612.67
2023-02-07T20:30:45.199Z,102616.25
2023-02-07T20:33:12.613Z,102620.01
2023-02-07T20:35:40.512Z,102623.41
2023-02-07T20:38:07.824Z,102627.09
2023-02-07T20:40:35.470Z,102634.62
2023-02-07T20:43:02.860Z,102637.75
2023-02-07T20:45:31.686Z,102637.72
2023-02-07T20:47:59.285Z,102642.95
2023-02-07T20:50:26.998Z,102636.60
2023-02-07T20:52:54.510Z,102639.77
2023-02-07T20:55:22.452Z,102645.89
2023-02-07T20:57:49.859Z,102648.13
2023-02-07T21:00:17.734Z,102655.94
2023-02-07T21:02:45.287Z,102656.25
2023-02-07T21:05:13.224Z,102659.55
2023-02-07T21:07:40.628Z,102658.31
2023-02-07T21:10:08.371Z,102665.29
2023-02-07T21:12:36.245Z,102672.63
2023-02-07T21:15:03.764Z,102675.05
2023-02-07T21:17:31.582Z,102674.48
2023-02-07T21:19:59.011Z,102676.54
2023-02-07T21:22:26.520Z,102682.98
2023-02-07T21:24:53.859Z,102688.23
2023-02-07T21:27:21.538Z,102686.14
2023-02-07T21:29:49.117Z,102690.17
2023-02-07T21:32:16.486Z,102690.34
2023-02-07T21:34:44.353Z,102690.73
2023-02-07T21:37:12.255Z,102700.20
2023-02-07T21:39:39.759Z,102702.89
2023-02-07T21:42:07.123Z,102705.54
2023-02-07T21:44:34.535Z,102703.25
2023-02-07T21:47:02.220Z,102702.02
2023-02-07T21:49:29.924Z,102696.91
2023-02-07T21:51:57.917Z,102691.30
2023-02-07T21:54:25.662Z,102696.91
2023-02-07T21:56:53.083Z,102697.30
2023-02-07T21:59:20.857Z,102697.30
2023-02-07T22:01:48.251Z,102695.33
2023-02-07T22:04:16.527Z,102699.71
2023-02-07T22:06:46.790Z,102705.34
2023-02-07T22:09:15.156Z,102707.64
2023-02-07T22:11:44.249Z,102711.13
2023-02-07T22:14:12.640Z,102706.58
2023-02-07T22:16:39.993Z,102710.75
2023-02-07T22:19:08.268Z,102715.64
2023-02-07T22:21:38.413Z,102714.41
2023-02-07T22:24:06.122Z,102716.35
2023-02-07T22:26:34.894Z,102721.98
2023-02-07T22:29:03.740Z,102718.67
2023-02-07T22:31:33.300Z,102721.48
2023-02-07T22:34:07.515Z,102717.86
2023-02-07T22:36:38.158Z,102713.17
2023-02-07T22:39:06.922Z,102712.51
2023-02-07T22:41:35.964Z,102709.92
2023-02-07T22:44:03.610Z,102713.34
2023-02-07T22:46:31.977Z,102719.51
2023-02-07T22:48:59.506Z,102716.73
2023-02-07T22:51:32.457Z,102722.74
2023-02-07T22:54:06.449Z,102724.88
2023-02-07T22:56:34.933Z,102733.87
2023-02-07T22:59:02.606Z,102733.22
2023-02-07T23:01:36.287Z,102738.12
2023-02-07T23:04:04.593Z,102739.00
2023-02-07T23:06:32.607Z,102739.55
2023-02-07T23:09:00.607Z,102736.26
2023-02-07T23:11:28.057Z,102737.90
2023-02-07T23:13:55.422Z,102739.36
2023-02-07T23:16:25.549Z,102740.27
2023-02-07T23:18:58.121Z,102739.36
2023-02-07T23:21:25.884Z,102742.34
2023-02-07T23:23:53.718Z,102744.48
2023-02-07T23:26:23.077Z,102746.80
2023-02-07T23:28:51.496Z,102753.52
2023-02-07T23:31:20.419Z,102756.03
2023-02-07T23:33:48.818Z,102761.50
2023-02-07T23:36:17.808Z,102762.42
2023-02-07T23:38:46.963Z,102771.57
2023-02-07T23:41:14.769Z,102771.43
2023-02-07T23:43:42.330Z,102770.80
2023-02-07T23:46:10.035Z,102768.60
2023-02-07T23:48:38.869Z,102778.13
2023-02-07T23:51:09.925Z,102781.34
2023-02-07T23:53:37.575Z,102784.23
2023-02-07T23:56:05.566Z,102780.96
2023-02-07T23:58:33.567Z,102782.25
